Time;durP1;ratioP1;P1;durP2;ratioP2;P2;SDS_P1;SDS_P2;PMS_P1;PMS_P2;Temp;Humidity;BMP_temperature;BMP_pressure;BME280_temperature;BME280_humidity;BME280_pressure;Samples;Min_cycle;Max_cycle;Signal;HPM_P1;HPM_P2
2023/08/12 00:01:39;;;;;;;5.83;4.70;;;18.90;99.90;;;;;;5087225;28;20502;-76
2023/08/12 00:04:25;;;;;;;7.77;4.33;;;18.90;99.90;;;;;;5081026;28;20452;-77
2023/08/12 00:07:10;;;;;;;7.47;5.33;;;18.90;99.90;;;;;;5079576;28;20460;-76
2023/08/12 00:09:57;;;;;;;7.63;4.80;;;19.00;99.90;;;;;;5074053;28;20808;-76
2023/08/12 00:12:43;;;;;;;7.33;4.73;;;19.00;99.90;;;;;;5084615;28;20829;-76
2023/08/12 00:15:29;;;;;;;7.53;4.77;;;19.00;99.90;;;;;;5078869;28;20448;-76
2023/08/12 00:18:15;;;;;;;6.33;4.60;;;19.10;99.90;;;;;;5082521;28;20449;-76
2023/08/12 00:21:00;;;;;;;8.30;4.40;;;19.10;99.90;;;;;;5073328;28;20870;-76
2023/08/12 00:23:47;;;;;;;8.07;4.40;;;19.00;99.90;;;;;;5082140;28;20428;-76
2023/08/12 00:26:34;;;;;;;6.00;4.37;;;19.00;99.90;;;;;;5083510;28;20451;-76
2023/08/12 00:29:19;;;;;;;4.40;4.00;;;18.90;99.90;;;;;;5078678;28;20414;-76
2023/08/12 00:32:05;;;;;;;5.13;4.23;;;19.00;99.90;;;;;;5078195;28;20460;-76
2023/08/12 00:34:50;;;;;;;7.80;4.27;;;19.00;99.90;;;;;;5082420;28;20949;-76
2023/08/12 00:37:36;;;;;;;4.63;4.13;;;19.10;99.90;;;;;;5079642;28;20445;-76
2023/08/12 00:40:21;;;;;;;7.00;4.40;;;19.20;99.90;;;;;;5081956;28;20451;-77
2023/08/12 00:43:09;;;;;;;7.80;4.67;;;19.20;99.90;;;;;;5078992;28;20445;-76
2023/08/12 00:45:54;;;;;;;6.40;4.30;;;19.20;99.90;;;;;;5079902;28;20443;-76
2023/08/12 00:48:40;;;;;;;7.97;4.63;;;19.10;99.90;;;;;;5082310;28;20966;-76
2023/08/12 00:51:26;;;;;;;5.20;4.70;;;19.00;99.90;;;;;;5081692;28;20522;-76
2023/08/12 00:54:15;;;;;;;7.23;4.30;;;18.90;99.90;;;;;;5084379;28;20546;-75
2023/08/12 00:57:01;;;;;;;7.47;4.90;;;18.80;99.90;;;;;;5076787;28;20450;-75
2023/08/12 00:59:50;;;;;;;8.20;4.53;;;18.90;99.90;;;;;;5081645;28;20955;-76
2023/08/12 01:02:35;;;;;;;5.27;4.23;;;19.00;99.90;;;;;;5075893;28;20504;-76
2023/08/12 01:05:21;;;;;;;13.33;5.20;;;19.00;99.90;;;;;;5076920;28;21018;-76
2023/08/12 01:08:06;;;;;;;5.90;4.20;;;19.10;99.90;;;;;;5079249;28;20966;-76
2023/08/12 01:11:02;;;;;;;8.03;4.10;;;19.20;99.90;;;;;;5084988;28;20574;-76
2023/08/12 01:13:58;;;;;;;6.87;4.57;;;19.20;99.90;;;;;;5080820;28;20594;-76
2023/08/12 01:16:48;;;;;;;9.30;4.67;;;19.20;99.90;;;;;;5086366;28;20448;-76
2023/08/12 01:19:37;;;;;;;5.30;4.00;;;19.10;99.90;;;;;;5084543;28;20747;-76
2023/08/12 01:22:26;;;;;;;12.97;4.63;;;19.10;99.90;;;;;;5088511;28;20468;-77
2023/08/12 01:25:13;;;;;;;5.57;4.60;;;19.00;99.90;;;;;;5083364;28;21162;-76
2023/08/12 01:27:58;;;;;;;7.60;4.33;;;19.10;99.90;;;;;;5088950;28;20502;-76
2023/08/12 01:30:50;;;;;;;6.53;4.30;;;19.20;99.90;;;;;;5084859;28;20557;-76
2023/08/12 01:33:40;;;;;;;7.43;4.80;;;19.20;99.90;;;;;;5090960;28;20483;-76
2023/08/12 01:36:28;;;;;;;12.73;5.10;;;19.20;99.90;;;;;;5086344;28;20907;-77
2023/08/12 01:39:15;;;;;;;7.67;4.70;;;19.20;99.90;;;;;;5078720;28;20456;-76
2023/08/12 01:42:02;;;;;;;8.60;4.37;;;19.30;99.90;;;;;;5086869;28;20460;-76
2023/08/12 01:44:50;;;;;;;6.37;5.20;;;19.30;99.90;;;;;;5091795;28;20444;-76
2023/08/12 01:47:35;;;;;;;5.87;3.60;;;19.30;99.90;;;;;;5088147;28;20415;-76
2023/08/12 01:50:21;;;;;;;7.43;4.70;;;19.30;99.90;;;;;;5085823;28;20452;-76
2023/08/12 01:53:06;;;;;;;6.40;4.70;;;19.30;99.90;;;;;;5090502;28;20592;-76
2023/08/12 01:55:53;;;;;;;10.43;4.73;;;19.40;99.90;;;;;;5080924;28;20490;-76
2023/08/12 01:58:40;;;;;;;8.47;5.00;;;19.30;99.90;;;;;;5087197;28;20837;-76
2023/08/12 02:01:25;;;;;;;7.50;4.70;;;19.20;99.90;;;;;;5084357;28;20456;-76
2023/08/12 02:04:11;;;;;;;5.47;4.53;;;19.20;99.90;;;;;;5082927;28;20591;-77
2023/08/12 02:06:57;;;;;;;6.70;4.13;;;19.20;99.90;;;;;;5083830;28;20460;-76
2023/08/12 02:09:42;;;;;;;6.70;5.40;;;19.20;99.90;;;;;;5086510;28;20440;-76
2023/08/12 02:12:28;;;;;;;6.20;5.60;;;19.00;99.90;;;;;;5088526;28;20554;-77
2023/08/12 02:15:15;;;;;;;10.77;4.50;;;19.00;99.90;;;;;;5087218;28;20446;-76
2023/08/12 02:18:00;;;;;;;11.20;5.10;;;19.10;99.90;;;;;;5084982;28;20483;-77
2023/08/12 02:20:47;;;;;;;7.13;4.43;;;19.20;99.90;;;;;;5087746;28;20465;-76
2023/08/12 02:23:33;;;;;;;7.30;5.20;;;19.20;99.90;;;;;;5084955;28;20807;-76
2023/08/12 02:26:19;;;;;;;4.23;3.70;;;19.20;99.90;;;;;;5078384;28;20457;-77
2023/08/12 02:29:04;;;;;;;7.97;4.53;;;19.30;99.90;;;;;;5082355;28;20444;-76
2023/08/12 02:31:51;;;;;;;5.37;4.20;;;19.40;99.90;;;;;;5084308;28;21032;-76
2023/08/12 02:34:37;;;;;;;7.60;5.10;;;19.30;99.90;;;;;;5082570;28;20945;-76
2023/08/12 02:37:22;;;;;;;9.40;4.93;;;19.30;99.90;;;;;;5083051;28;20464;-76
2023/08/12 02:40:10;;;;;;;7.73;4.80;;;19.20;99.90;;;;;;5083128;28;20456;-76
2023/08/12 02:42:55;;;;;;;5.93;4.57;;;19.20;99.90;;;;;;5085972;28;20441;-76
2023/08/12 02:45:41;;;;;;;6.23;5.10;;;19.30;99.90;;;;;;5084695;28;20523;-77
2023/08/12 02:48:28;;;;;;;7.17;4.77;;;19.30;99.90;;;;;;5087138;28;21031;-76
2023/08/12 02:51:13;;;;;;;4.97;4.17;;;19.30;99.90;;;;;;5080805;28;21001;-75
2023/08/12 02:53:59;;;;;;;5.23;4.73;;;19.40;99.90;;;;;;5084142;28;20800;-77
2023/08/12 02:56:44;;;;;;;6.20;4.40;;;19.40;99.90;;;;;;5079000;28;20820;-76
2023/08/12 02:59:30;;;;;;;7.47;5.23;;;19.30;99.90;;;;;;5087276;28;20452;-76
2023/08/12 03:02:16;;;;;;;9.43;5.63;;;19.20;99.90;;;;;;5074087;28;20500;-76
2023/08/12 03:05:03;;;;;;;8.00;4.33;;;19.20;99.90;;;;;;5085400;28;20440;-77
2023/08/12 03:07:48;;;;;;;6.20;4.90;;;19.20;99.90;;;;;;5083830;28;20449;-76
2023/08/12 03:10:34;;;;;;;6.10;5.00;;;19.20;99.90;;;;;;5087771;28;20468;-76
2023/08/12 03:13:20;;;;;;;11.20;4.80;;;19.20;99.90;;;;;;5081838;28;20444;-76
2023/08/12 03:16:05;;;;;;;7.10;4.53;;;19.20;99.90;;;;;;5084786;28;20499;-77
2023/08/12 03:18:50;;;;;;;8.87;5.30;;;19.30;99.90;;;;;;5082143;28;20919;-76
2023/08/12 03:21:37;;;;;;;5.63;5.07;;;19.20;99.90;;;;;;5083704;28;20473;-77
2023/08/12 03:24:23;;;;;;;7.23;4.60;;;19.20;99.90;;;;;;5085975;28;20563;-76
2023/08/12 03:27:08;;;;;;;9.37;5.13;;;19.30;99.90;;;;;;5082313;28;20504;-76
2023/08/12 03:29:54;;;;;;;6.60;4.40;;;19.30;99.90;;;;;;5086709;28;20463;-77
2023/08/12 03:32:40;;;;;;;5.97;4.37;;;19.30;99.90;;;;;;5079910;28;20601;-76
2023/08/12 03:35:25;;;;;;;6.50;5.00;;;19.30;99.90;;;;;;5079060;28;20454;-76
2023/08/12 03:38:12;;;;;;;13.37;5.50;;;19.30;99.90;;;;;;5079105;28;20814;-76
2023/08/12 03:40:57;;;;;;;9.93;4.77;;;19.30;99.90;;;;;;5080316;28;20510;-76
2023/08/12 03:43:43;;;;;;;12.30;5.30;;;19.20;99.90;;;;;;5079357;28;20524;-76
2023/08/12 03:46:28;;;;;;;7.33;5.27;;;19.20;99.90;;;;;;5078208;28;20442;-76
2023/08/12 03:49:14;;;;;;;5.30;4.40;;;19.30;99.90;;;;;;5086901;28;20497;-76
2023/08/12 03:52:00;;;;;;;8.53;4.87;;;19.30;99.90;;;;;;5087383;28;20476;-76
2023/08/12 03:54:46;;;;;;;9.60;4.73;;;19.30;99.90;;;;;;5080261;28;20433;-76
2023/08/12 03:57:32;;;;;;;6.23;4.63;;;19.30;99.90;;;;;;5086083;28;21028;-77
2023/08/12 04:00:18;;;;;;;7.37;5.03;;;19.30;99.90;;;;;;5079479;28;20812;-77
2023/08/12 04:03:04;;;;;;;7.07;4.90;;;19.30;99.90;;;;;;5081288;28;20445;-76
2023/08/12 04:05:51;;;;;;;6.10;5.00;;;19.30;99.90;;;;;;5084799;28;20458;-77
2023/08/12 04:08:36;;;;;;;6.67;5.50;;;19.30;99.90;;;;;;5085254;28;20475;-76
2023/08/12 04:11:23;;;;;;;7.07;4.90;;;19.10;99.90;;;;;;5076190;28;20508;-77
2023/08/12 04:14:09;;;;;;;15.23;6.20;;;19.00;99.90;;;;;;5087095;28;20495;-77
2023/08/12 04:16:54;;;;;;;5.10;4.60;;;19.00;99.90;;;;;;5088866;28;20448;-77
2023/08/12 04:19:40;;;;;;;7.00;5.67;;;19.00;99.90;;;;;;5078135;28;20441;-76
2023/08/12 04:22:26;;;;;;;7.10;5.80;;;19.00;99.90;;;;;;5079993;28;20455;-76
2023/08/12 04:25:11;;;;;;;8.97;5.30;;;19.00;99.90;;;;;;5078470;28;20451;-76
2023/08/12 04:27:58;;;;;;;6.77;5.50;;;19.00;99.90;;;;;;5086030;28;20961;-77
2023/08/12 04:30:44;;;;;;;11.67;6.10;;;19.10;99.90;;;;;;5082055;28;20985;-76
2023/08/12 04:33:29;;;;;;;7.37;5.90;;;19.10;99.90;;;;;;5076551;28;20502;-77
2023/08/12 04:36:15;;;;;;;8.83;5.27;;;19.10;99.90;;;;;;5082871;28;20958;-77
2023/08/12 04:39:01;;;;;;;9.50;6.93;;;19.10;99.90;;;;;;5079096;28;20964;-77
2023/08/12 04:41:46;;;;;;;6.60;5.00;;;19.20;99.90;;;;;;5087168;28;20460;-76
2023/08/12 04:44:33;;;;;;;8.97;5.60;;;19.20;99.90;;;;;;5083027;28;20445;-76
2023/08/12 04:47:18;;;;;;;10.30;5.60;;;19.20;99.90;;;;;;5082629;28;20452;-76
2023/08/12 04:50:04;;;;;;;10.50;5.43;;;19.30;99.90;;;;;;5081758;28;20433;-75
2023/08/12 04:52:50;;;;;;;13.33;5.00;;;19.20;99.90;;;;;;5084924;28;20546;-76
2023/08/12 04:55:36;;;;;;;7.93;5.07;;;19.20;99.90;;;;;;5083611;28;20586;-76
2023/08/12 04:58:21;;;;;;;12.20;5.70;;;19.20;99.90;;;;;;5076717;28;20420;-77
2023/08/12 05:01:09;;;;;;;8.57;5.30;;;19.10;99.90;;;;;;5076398;28;20994;-77
2023/08/12 05:03:54;;;;;;;15.73;5.60;;;19.10;99.90;;;;;;5080125;28;20924;-76
2023/08/12 05:06:40;;;;;;;4.83;4.13;;;19.20;99.90;;;;;;5083843;28;20901;-76
2023/08/12 05:09:25;;;;;;;8.60;5.00;;;19.20;99.90;;;;;;5084695;28;20551;-77
2023/08/12 05:12:10;;;;;;;10.23;4.80;;;19.30;99.90;;;;;;5080299;28;20487;-76
2023/08/12 05:14:56;;;;;;;11.93;5.10;;;19.40;99.90;;;;;;5079523;28;20443;-76
2023/08/12 05:17:43;;;;;;;5.97;5.37;;;19.40;99.90;;;;;;5080068;28;20475;-77
2023/08/12 05:20:29;;;;;;;10.63;5.53;;;19.40;99.90;;;;;;5078870;28;20448;-75
2023/08/12 05:23:14;;;;;;;5.47;4.87;;;19.40;99.90;;;;;;5080196;28;21434;-75
2023/08/12 05:26:00;;;;;;;7.93;5.63;;;19.40;99.90;;;;;;5076425;28;20796;-76
2023/08/12 05:28:45;;;;;;;5.47;4.83;;;19.50;99.90;;;;;;5075455;28;20822;-76
2023/08/12 05:31:31;;;;;;;6.03;5.00;;;19.50;99.90;;;;;;5085029;28;20447;-76
2023/08/12 05:34:18;;;;;;;6.70;4.90;;;19.50;99.90;;;;;;5078674;28;20571;-77
2023/08/12 05:37:03;;;;;;;6.33;5.17;;;19.50;99.90;;;;;;5081645;28;20444;-76
2023/08/12 05:39:49;;;;;;;8.60;5.77;;;19.60;99.90;;;;;;5079460;28;21053;-76
2023/08/12 05:42:35;;;;;;;6.07;5.03;;;19.60;99.90;;;;;;5074067;28;20584;-76
2023/08/12 05:45:20;;;;;;;13.23;6.47;;;19.60;99.90;;;;;;5074457;28;20510;-77
2023/08/12 05:48:06;;;;;;;8.97;5.27;;;19.60;99.90;;;;;;5080421;28;20450;-76
2023/08/12 05:50:53;;;;;;;15.57;5.80;;;19.60;99.90;;;;;;5075529;28;20469;-77
2023/08/12 05:53:39;;;;;;;6.40;5.63;;;19.70;99.90;;;;;;5079328;28;20932;-76
2023/08/12 05:56:24;;;;;;;9.23;5.20;;;19.80;99.90;;;;;;5083609;28;20798;-77
2023/08/12 05:59:09;;;;;;;7.27;5.03;;;19.80;99.90;;;;;;5081406;28;20442;-76
2023/08/12 06:01:55;;;;;;;6.60;5.10;;;19.80;99.90;;;;;;5085591;28;21100;-76
2023/08/12 06:04:41;;;;;;;7.73;5.60;;;19.70;99.90;;;;;;5086744;28;20948;-77
2023/08/12 06:07:27;;;;;;;6.20;5.47;;;19.80;99.90;;;;;;5083114;28;20431;-76
2023/08/12 06:10:13;;;;;;;7.67;4.87;;;19.80;99.90;;;;;;5086652;28;20456;-76
2023/08/12 06:12:58;;;;;;;6.17;5.50;;;19.90;99.90;;;;;;5078231;28;20507;-76
2023/08/12 06:15:44;;;;;;;6.10;5.30;;;19.90;99.90;;;;;;5084012;28;20476;-76
2023/08/12 06:18:29;;;;;;;6.07;5.50;;;19.90;99.90;;;;;;5080839;28;21087;-77
2023/08/12 06:21:15;;;;;;;7.00;5.57;;;19.90;99.90;;;;;;5079770;28;21024;-76
2023/08/12 06:24:02;;;;;;;6.97;5.73;;;19.90;99.90;;;;;;5083087;28;20440;-76
2023/08/12 06:26:47;;;;;;;7.63;5.03;;;19.90;99.90;;;;;;5078803;28;20456;-77
2023/08/12 06:29:33;;;;;;;11.53;5.63;;;20.10;99.90;;;;;;5080414;28;20820;-76
2023/08/12 06:32:18;;;;;;;10.07;4.63;;;20.30;99.90;;;;;;5080776;28;20443;-76
2023/08/12 06:35:05;;;;;;;5.23;4.73;;;20.50;99.90;;;;;;5083699;28;20459;-77
2023/08/12 06:37:50;;;;;;;6.57;5.43;;;20.80;99.90;;;;;;5086449;28;20444;-76
2023/08/12 06:40:38;;;;;;;10.60;5.67;;;20.90;99.90;;;;;;5085302;28;20464;-76
2023/08/12 06:43:23;;;;;;;6.73;5.80;;;21.00;99.90;;;;;;5082857;28;20516;-76
2023/08/12 06:46:09;;;;;;;6.33;5.47;;;21.00;99.90;;;;;;5083985;28;20484;-75
2023/08/12 06:48:54;;;;;;;6.40;5.30;;;21.10;99.90;;;;;;5083064;28;20491;-76
2023/08/12 06:51:40;;;;;;;6.03;5.30;;;21.20;99.90;;;;;;5085726;28;20587;-76
2023/08/12 06:54:25;;;;;;;8.63;4.93;;;21.30;99.90;;;;;;5083923;28;20449;-77
2023/08/12 06:57:13;;;;;;;11.00;5.57;;;21.30;99.90;;;;;;5085236;28;20433;-76
2023/08/12 06:59:58;;;;;;;6.70;5.60;;;21.40;99.90;;;;;;5078956;28;20458;-76
2023/08/12 07:02:43;;;;;;;8.63;6.00;;;21.40;99.90;;;;;;5089493;28;20447;-76
2023/08/12 07:05:29;;;;;;;12.40;5.43;;;21.40;99.90;;;;;;5088065;28;20444;-76
2023/08/12 07:08:14;;;;;;;7.83;5.43;;;21.40;99.90;;;;;;5090030;28;20477;-76
2023/08/12 07:11:00;;;;;;;6.20;5.37;;;21.30;99.90;;;;;;5081981;28;20464;-76
2023/08/12 07:13:47;;;;;;;10.50;5.97;;;21.40;99.90;;;;;;5083143;28;20469;-76
2023/08/12 07:16:32;;;;;;;6.23;5.40;;;21.40;99.90;;;;;;5082910;28;20458;-76
2023/08/12 07:19:18;;;;;;;7.17;6.47;;;21.50;99.90;;;;;;5086983;28;20433;-76
2023/08/12 07:22:04;;;;;;;9.93;5.60;;;21.60;99.90;;;;;;5083353;28;20461;-77
2023/08/12 07:24:52;;;;;;;7.10;6.40;;;21.60;99.90;;;;;;5080072;28;20567;-76
2023/08/12 07:27:37;;;;;;;6.30;5.70;;;21.70;99.90;;;;;;5085349;28;21065;-76
2023/08/12 07:30:24;;;;;;;11.67;5.20;;;21.80;99.90;;;;;;5085066;28;20477;-75
2023/08/12 07:33:09;;;;;;;9.83;7.73;;;21.90;99.90;;;;;;5084657;28;20986;-75
2023/08/12 07:35:55;;;;;;;6.17;5.57;;;21.90;99.90;;;;;;5079847;28;20448;-75
2023/08/12 07:38:40;;;;;;;16.23;5.77;;;22.00;99.90;;;;;;5073853;28;20457;-76
2023/08/12 07:41:27;;;;;;;6.33;5.10;;;22.00;99.90;;;;;;5088367;28;20501;-74
2023/08/12 07:44:13;;;;;;;6.30;5.57;;;22.00;99.90;;;;;;5078654;28;20443;-74
2023/08/12 07:46:59;;;;;;;6.50;4.73;;;22.10;99.90;;;;;;5084603;28;20489;-74
2023/08/12 07:49:45;;;;;;;7.47;5.60;;;22.10;99.90;;;;;;5081736;28;20559;-75
2023/08/12 07:52:30;;;;;;;8.33;5.30;;;22.10;99.90;;;;;;5084855;28;20473;-75
2023/08/12 07:55:17;;;;;;;12.57;5.40;;;22.20;99.90;;;;;;5082505;28;20446;-76
2023/08/12 07:58:04;;;;;;;8.60;5.50;;;22.20;99.90;;;;;;5082302;28;20450;-78
2023/08/12 08:00:53;;;;;;;6.77;5.20;;;22.30;99.90;;;;;;5081112;28;20518;-76
2023/08/12 08:03:40;;;;;;;9.77;7.33;;;22.30;99.90;;;;;;5079626;28;20439;-76
2023/08/12 08:06:26;;;;;;;8.37;7.50;;;22.40;99.90;;;;;;5080280;28;20578;-76
2023/08/12 08:09:11;;;;;;;7.30;5.60;;;22.40;99.90;;;;;;5076386;28;20445;-76
2023/08/12 08:12:00;;;;;;;6.40;5.70;;;22.50;99.90;;;;;;5082847;28;20639;-77
2023/08/12 08:14:45;;;;;;;7.23;5.63;;;22.60;99.90;;;;;;5076110;28;20514;-77
2023/08/12 08:17:30;;;;;;;7.03;5.73;;;22.80;99.90;;;;;;5082572;28;20442;-76
2023/08/12 08:20:18;;;;;;;9.43;6.17;;;22.90;99.90;;;;;;5078994;28;20992;-76
2023/08/12 08:23:03;;;;;;;7.87;7.07;;;23.00;99.90;;;;;;5082756;28;20887;-75
2023/08/12 08:25:49;;;;;;;9.20;6.17;;;23.20;99.90;;;;;;5080004;28;20418;-75
2023/08/12 08:28:34;;;;;;;11.20;6.20;;;23.30;99.90;;;;;;5084834;28;20498;-74
2023/08/12 08:31:20;;;;;;;6.67;5.73;;;23.40;99.90;;;;;;5081965;28;20473;-75
2023/08/12 08:34:05;;;;;;;6.60;5.80;;;23.50;99.90;;;;;;5079417;28;20470;-76
2023/08/12 08:36:52;;;;;;;7.40;6.10;;;23.50;99.90;;;;;;5083305;28;20569;-75
2023/08/12 08:39:41;;;;;;;8.50;5.53;;;23.60;99.90;;;;;;5085936;28;20441;-76
2023/08/12 08:42:26;;;;;;;11.00;5.67;;;23.70;99.90;;;;;;5081260;28;20465;-74
2023/08/12 08:45:14;;;;;;;9.33;7.00;;;23.90;99.90;;;;;;5077321;28;20574;-76
2023/08/12 08:48:01;;;;;;;8.50;6.10;;;23.90;99.90;;;;;;5080094;28;20447;-76
2023/08/12 08:50:47;;;;;;;8.43;6.03;;;24.00;99.90;;;;;;5080581;28;20459;-76
2023/08/12 08:53:38;;;;;;;8.03;6.83;;;24.10;99.90;;;;;;5079341;28;20489;-76
2023/08/12 08:56:24;;;;;;;8.50;6.63;;;24.30;99.90;;;;;;5078955;28;20455;-76
2023/08/12 08:59:10;;;;;;;9.50;6.70;;;24.40;99.90;;;;;;5086166;28;20441;-76
2023/08/12 09:01:56;;;;;;;18.10;6.60;;;24.50;99.90;;;;;;5080759;28;20595;-76
2023/08/12 09:04:42;;;;;;;11.73;7.10;;;24.60;99.90;;;;;;5087597;28;20431;-75
2023/08/12 09:07:29;;;;;;;9.07;6.20;;;24.70;99.90;;;;;;5083158;28;20528;-75
2023/08/12 09:10:15;;;;;;;11.47;6.70;;;24.80;99.90;;;;;;5081997;28;21285;-76
2023/08/12 09:13:02;;;;;;;11.70;5.80;;;24.80;99.90;;;;;;5082467;28;20571;-76
2023/08/12 09:15:47;;;;;;;9.27;6.27;;;24.90;99.90;;;;;;5075593;28;20439;-77
2023/08/12 09:18:33;;;;;;;8.70;6.20;;;24.90;99.90;;;;;;5074775;28;20451;-77
2023/08/12 09:21:18;;;;;;;7.97;5.20;;;25.00;99.90;;;;;;5081080;28;20469;-75
2023/08/12 09:24:05;;;;;;;6.37;5.40;;;25.10;99.90;;;;;;5079142;28;20446;-76
2023/08/12 09:26:54;;;;;;;10.70;6.83;;;25.20;99.90;;;;;;5083042;28;20451;-76
2023/08/12 09:29:39;;;;;;;7.50;6.20;;;25.30;99.90;;;;;;5076639;28;20446;-76
2023/08/12 09:32:25;;;;;;;11.13;6.10;;;25.40;99.90;;;;;;5082738;28;20468;-76
2023/08/12 09:35:17;;;;;;;7.00;5.63;;;25.50;99.90;;;;;;5084760;28;20421;-76
2023/08/12 09:38:04;;;;;;;9.63;5.67;;;25.60;99.90;;;;;;5085421;28;20434;-76
2023/08/12 09:40:53;;;;;;;8.53;6.07;;;25.50;99.90;;;;;;5082964;28;21042;-75
2023/08/12 09:43:43;;;;;;;6.00;5.00;;;25.40;99.90;;;;;;5086292;28;20445;-76
2023/08/12 09:46:29;;;;;;;8.50;6.97;;;25.40;99.90;;;;;;5084004;28;20585;-75
2023/08/12 09:49:14;;;;;;;8.53;6.40;;;25.40;99.90;;;;;;5080243;28;21092;-76
2023/08/12 09:52:00;;;;;;;10.93;6.10;;;25.40;99.90;;;;;;5086508;28;20463;-75
2023/08/12 09:54:47;;;;;;;12.13;6.30;;;25.60;99.90;;;;;;5086899;28;20464;-76
2023/08/12 09:57:36;;;;;;;11.40;6.43;;;25.70;99.90;;;;;;5084051;28;20460;-76
2023/08/12 10:00:25;;;;;;;7.80;6.70;;;25.90;99.90;;;;;;5077454;28;20448;-76
2023/08/12 10:03:11;;;;;;;14.70;7.07;;;25.90;99.90;;;;;;5076323;28;20989;-76
2023/08/12 10:05:58;;;;;;;9.20;7.07;;;26.10;99.90;;;;;;5079962;28;21232;-75
2023/08/12 10:08:44;;;;;;;10.33;7.17;;;26.20;99.90;;;;;;5081763;28;20484;-76
2023/08/12 10:11:29;;;;;;;10.40;6.23;;;26.20;99.90;;;;;;5077028;28;20461;-76
2023/08/12 10:14:16;;;;;;;7.93;6.10;;;26.30;99.90;;;;;;5077620;28;21379;-76
2023/08/12 10:17:03;;;;;;;8.73;5.70;;;26.40;99.90;;;;;;5079113;28;20627;-76
2023/08/12 10:19:55;;;;;;;8.17;5.70;;;26.40;99.90;;;;;;5074640;28;20449;-76
2023/08/12 10:22:43;;;;;;;8.83;6.67;;;26.30;99.90;;;;;;5081124;28;20969;-76
2023/08/12 10:25:33;;;;;;;7.63;5.70;;;26.20;99.90;;;;;;5078621;28;20439;-75
2023/08/12 10:28:20;;;;;;;9.90;6.73;;;26.10;99.90;;;;;;5079250;28;23938;-76
2023/08/12 10:31:07;;;;;;;10.03;7.20;;;26.00;99.90;;;;;;5079598;28;20529;-76
2023/08/12 10:33:54;;;;;;;10.57;6.33;;;25.90;99.90;;;;;;5075578;28;20970;-76
2023/08/12 10:36:42;;;;;;;9.37;6.93;;;25.80;99.90;;;;;;5079540;28;20584;-74
2023/08/12 10:39:28;;;;;;;8.53;6.80;;;25.70;99.90;;;;;;5080509;28;20445;-75
2023/08/12 10:42:13;;;;;;;9.90;7.30;;;25.70;99.90;;;;;;5082939;28;20611;-75
2023/08/12 10:44:59;;;;;;;10.13;8.03;;;25.70;99.90;;;;;;5080347;28;20437;-74
2023/08/12 10:47:49;;;;;;;10.10;6.83;;;25.50;99.90;;;;;;5081369;28;20493;-75
2023/08/12 10:50:36;;;;;;;9.87;7.63;;;25.40;99.90;;;;;;5079335;28;20653;-74
2023/08/12 10:53:25;;;;;;;11.00;7.87;;;25.30;99.90;;;;;;5076216;28;20472;-75
2023/08/12 10:56:12;;;;;;;10.43;7.43;;;25.20;99.90;;;;;;5077115;28;20596;-75
2023/08/12 10:58:58;;;;;;;14.07;7.17;;;25.10;99.90;;;;;;5080220;28;20744;-75
2023/08/12 11:01:43;;;;;;;10.07;8.00;;;25.10;99.90;;;;;;5079434;28;20491;-75
2023/08/12 11:04:36;;;;;;;11.27;7.90;;;25.00;99.90;;;;;;5084654;28;20486;-75
2023/08/12 11:07:35;;;;;;;10.73;7.50;;;25.00;99.90;;;;;;5081024;28;20461;-74
2023/08/12 11:10:25;;;;;;;13.13;8.13;;;24.80;99.90;;;;;;5078347;28;20551;-74
2023/08/12 11:13:10;;;;;;;11.33;7.60;;;24.80;99.90;;;;;;5077321;28;20441;-74
2023/08/12 11:16:07;;;;;;;12.43;7.67;;;24.80;99.90;;;;;;5081481;28;20443;-74
2023/08/12 11:18:53;;;;;;;9.40;6.70;;;24.60;99.90;;;;;;5076269;28;21019;-74
2023/08/12 11:21:39;;;;;;;8.47;6.63;;;24.50;99.90;;;;;;5079331;28;20467;-74
2023/08/12 11:24:26;;;;;;;9.93;5.80;;;24.50;99.90;;;;;;5071140;28;21056;-74
2023/08/12 11:27:12;;;;;;;10.17;7.03;;;24.40;99.90;;;;;;5078938;28;20556;-74
2023/08/12 11:29:57;;;;;;;7.33;5.40;;;24.40;99.90;;;;;;5080933;28;20443;-74
2023/08/12 11:32:44;;;;;;;13.80;5.80;;;24.40;99.90;;;;;;5076226;28;20460;-74
2023/08/12 11:35:30;;;;;;;10.70;5.67;;;24.40;99.90;;;;;;5077419;28;20545;-76
2023/08/12 11:38:16;;;;;;;6.20;4.50;;;24.10;99.90;;;;;;5077113;28;20440;-75
2023/08/12 11:41:03;;;;;;;12.37;4.00;;;23.70;99.90;;;;;;5079509;28;20462;-75
2023/08/12 11:43:48;;;;;;;6.40;3.43;;;23.60;99.90;;;;;;5082587;28;20433;-75
2023/08/12 11:46:34;;;;;;;8.33;3.57;;;22.90;99.90;;;;;;5079099;28;20480;-75
2023/08/12 11:49:20;;;;;;;10.60;3.17;;;22.30;99.90;;;;;;5080240;28;20942;-74
2023/08/12 11:52:06;;;;;;;8.27;3.93;;;22.20;99.90;;;;;;5078169;28;20514;-75
2023/08/12 11:54:51;;;;;;;7.43;2.80;;;22.10;99.90;;;;;;5080196;28;20478;-75
2023/08/12 11:57:41;;;;;;;5.53;2.73;;;22.10;99.90;;;;;;5076467;28;20442;-75
2023/08/12 12:00:26;;;;;;;9.37;2.60;;;21.90;99.90;;;;;;5077161;28;20466;-75
2023/08/12 12:03:12;;;;;;;10.77;2.43;;;21.90;99.90;;;;;;5080186;28;20484;-74
2023/08/12 12:05:57;;;;;;;7.90;2.17;;;21.70;99.90;;;;;;5080791;28;20489;-75
2023/08/12 12:08:45;;;;;;;3.43;1.50;;;21.60;99.90;;;;;;5076275;28;20463;-75
2023/08/12 12:11:30;;;;;;;4.57;2.10;;;21.50;99.90;;;;;;5072657;28;20982;-75
2023/08/12 12:14:17;;;;;;;3.10;2.00;;;21.50;99.90;;;;;;5076663;28;20519;-74
2023/08/12 12:17:08;;;;;;;5.90;1.50;;;21.50;99.90;;;;;;5077218;28;21165;-75
2023/08/12 12:19:56;;;;;;;3.20;1.57;;;21.50;99.90;;;;;;5071155;28;20455;-75
2023/08/12 12:22:44;;;;;;;2.93;1.17;;;21.40;99.90;;;;;;5075991;28;20438;-75
2023/08/12 12:25:29;;;;;;;2.80;1.10;;;21.20;99.90;;;;;;5081693;28;20442;-74
2023/08/12 12:28:14;;;;;;;2.50;0.83;;;21.20;99.90;;;;;;5080584;28;20415;-74
2023/08/12 12:31:01;;;;;;;11.73;1.30;;;21.20;99.90;;;;;;5078730;28;21456;-75
2023/08/12 12:33:47;;;;;;;2.33;1.10;;;21.30;99.90;;;;;;5073869;28;20559;-74
2023/08/12 12:36:33;;;;;;;2.57;0.83;;;21.40;99.90;;;;;;5077903;28;20463;-74
2023/08/12 12:39:18;;;;;;;3.70;1.50;;;21.50;99.90;;;;;;5078624;28;20968;-75
2023/08/12 12:42:04;;;;;;;5.63;1.30;;;21.60;99.90;;;;;;5079964;28;20479;-75
2023/08/12 12:44:50;;;;;;;7.33;0.90;;;21.70;99.90;;;;;;5071708;28;20910;-75
2023/08/12 12:47:37;;;;;;;2.40;1.20;;;21.90;99.90;;;;;;5080478;28;20773;-75
2023/08/12 12:50:22;;;;;;;1.80;0.80;;;22.30;99.90;;;;;;5078124;28;20568;-75
2023/08/12 12:53:08;;;;;;;3.33;1.43;;;22.70;99.90;;;;;;5078279;28;20445;-74
2023/08/12 12:55:53;;;;;;;1.77;0.87;;;22.90;99.90;;;;;;5075191;28;20474;-74
2023/08/12 12:58:39;;;;;;;1.70;0.70;;;23.00;99.90;;;;;;5083068;28;20413;-74
2023/08/12 13:01:25;;;;;;;2.17;0.90;;;22.80;99.90;;;;;;5077069;28;20569;-75
2023/08/12 13:04:12;;;;;;;2.07;0.80;;;22.80;99.90;;;;;;5078086;28;20546;-75
2023/08/12 13:06:57;;;;;;;2.90;1.00;;;22.80;99.90;;;;;;5070282;28;20544;-74
2023/08/12 13:09:42;;;;;;;3.57;1.27;;;22.80;99.90;;;;;;5080470;28;20481;-74
2023/08/12 13:12:31;;;;;;;2.50;1.00;;;22.70;99.90;;;;;;5080433;28;20815;-74
2023/08/12 13:15:16;;;;;;;3.00;1.43;;;22.60;99.90;;;;;;5083374;28;21075;-75
2023/08/12 13:18:02;;;;;;;4.03;1.90;;;22.60;99.90;;;;;;5075977;28;20449;-75
2023/08/12 13:20:49;;;;;;;5.03;1.90;;;22.60;99.90;;;;;;5079979;28;21030;-75
2023/08/12 13:23:35;;;;;;;3.37;1.00;;;22.40;99.90;;;;;;5071693;28;20531;-75
2023/08/12 13:26:21;;;;;;;2.23;1.00;;;22.30;99.90;;;;;;5068624;28;20443;-74
2023/08/12 13:29:06;;;;;;;2.90;1.70;;;22.30;99.90;;;;;;5071693;28;20463;-75
2023/08/12 13:31:52;;;;;;;5.23;1.17;;;22.20;99.90;;;;;;5076100;28;20462;-75
2023/08/12 13:34:37;;;;;;;5.80;1.10;;;22.30;99.90;;;;;;5075147;28;20540;-75
2023/08/12 13:37:24;;;;;;;3.33;1.10;;;22.40;99.90;;;;;;5072428;28;20816;-75
2023/08/12 13:40:11;;;;;;;2.57;1.00;;;22.40;99.90;;;;;;5075840;28;20578;-75
2023/08/12 13:42:57;;;;;;;2.90;1.30;;;22.50;99.90;;;;;;5075496;28;20447;-74
2023/08/12 13:45:42;;;;;;;1.97;0.90;;;22.50;99.90;;;;;;5077003;28;20412;-75
2023/08/12 13:48:28;;;;;;;2.37;0.90;;;22.60;99.90;;;;;;5074078;28;20492;-75
2023/08/12 13:51:13;;;;;;;2.10;1.03;;;22.60;99.90;;;;;;5077486;28;20599;-75
2023/08/12 13:54:00;;;;;;;2.27;0.83;;;22.60;99.90;;;;;;5074043;28;20538;-75
2023/08/12 13:56:45;;;;;;;2.27;1.07;;;22.70;99.90;;;;;;5074718;28;20478;-74
2023/08/12 13:59:31;;;;;;;2.17;1.17;;;22.80;99.90;;;;;;5075503;28;20445;-74
2023/08/12 14:02:16;;;;;;;2.10;1.00;;;22.80;99.90;;;;;;5071377;28;20469;-74
2023/08/12 14:05:02;;;;;;;2.70;1.13;;;22.80;99.90;;;;;;5076992;28;20452;-75
2023/08/12 14:07:47;;;;;;;2.27;0.87;;;22.80;99.90;;;;;;5078767;28;20448;-74
2023/08/12 14:10:34;;;;;;;3.73;1.10;;;22.80;99.90;;;;;;5075477;28;20887;-75
2023/08/12 14:13:20;;;;;;;2.40;1.10;;;22.80;99.90;;;;;;5078319;28;20807;-74
2023/08/12 14:16:06;;;;;;;2.20;1.20;;;22.90;99.90;;;;;;5078219;28;20496;-75
2023/08/12 14:18:51;;;;;;;2.80;1.50;;;22.90;99.90;;;;;;5076930;28;20421;-75
2023/08/12 14:21:37;;;;;;;2.03;1.37;;;23.00;99.90;;;;;;5075558;28;20465;-75
2023/08/12 14:24:22;;;;;;;2.63;1.23;;;23.10;99.90;;;;;;5072201;28;20457;-75